KSDM

Brown Field Municipal Airport

San Diego, California, USA
METAR KSDM 151153Z AUTO 08006KT 10SM CLR 09/M08 A3007 RMK AO2 SLP182 T00941078 10172 20083 58005
Observed Flight Rules
Nov-15 @ 11:53 UTC (50 minutes ago) Visual Flight Rules
Wind Visibility Clouds
80° at 6 knots 10 miles
  • Clear skies
Temperatures Readings
Current 9°C / 48°F
Dewpoint -8°C / 18°F
Humidity 29%
Altimeter 30.07" Hg
Pressure 1018.2 hPa
Elevation 159
METAR KSDM 151153Z AUTO 08006KT 10SM CLR 09/M08 A3007 RMK AO2 SLP182 T00941078 10172 20083 58005
Observed Flight Rules
Nov-15 @ 11:53 UTC
(50 minutes ago)
VFR
Wind Visibility
80° at 6 knots 10 miles
Clouds
  • Clear skies
Temperature Dewpoint
9°C / 48°F -8°C / 18°F
Humidity Altimeter Pressure
29% 30.07" Hg 1018.2 hPa